createdAt,value
2018-12-26T00:02:22.064Z,-2.81
2018-12-26T00:04:51.880Z,-2.82
2018-12-26T00:07:21.254Z,-2.90
2018-12-26T00:09:50.754Z,-2.88
2018-12-26T00:12:20.409Z,-2.90
2018-12-26T00:14:50.091Z,-2.89
2018-12-26T00:17:19.556Z,-2.80
2018-12-26T00:19:49.239Z,-2.84
2018-12-26T00:22:18.940Z,-2.90
2018-12-26T00:24:48.658Z,-2.93
2018-12-26T00:27:18.365Z,-2.92
2018-12-26T00:29:48.957Z,-2.96
2018-12-26T00:32:17.891Z,-2.98
2018-12-26T00:34:47.747Z,-3.07
2018-12-26T00:37:17.256Z,-3.03
2018-12-26T00:39:48.034Z,-3.11
2018-12-26T00:42:16.892Z,-3.07
2018-12-26T00:44:46.369Z,-3.05
2018-12-26T00:47:16.002Z,-3.07
2018-12-26T00:49:45.765Z,-3.08
2018-12-26T00:52:15.288Z,-3.20
2018-12-26T00:54:44.729Z,-3.16
2018-12-26T00:57:15.803Z,-3.13
2018-12-26T00:59:44.659Z,-3.16
2018-12-26T01:02:14.386Z,-3.12
2018-12-26T01:04:44.336Z,-3.15
2018-12-26T01:07:13.918Z,-3.19
2018-12-26T01:09:43.631Z,-3.19
2018-12-26T01:12:13.547Z,-3.15
2018-12-26T01:14:43.008Z,-3.18
2018-12-26T01:17:12.731Z,-3.18
2018-12-26T01:19:42.471Z,-3.23
2018-12-26T01:22:11.934Z,-3.17
2018-12-26T01:24:41.693Z,-3.18
2018-12-26T01:27:11.536Z,-3.15
2018-12-26T01:29:41.188Z,-3.12
2018-12-26T01:32:10.949Z,-3.18
2018-12-26T01:34:40.459Z,-3.18
2018-12-26T01:37:10.049Z,-3.23
2018-12-26T01:39:39.401Z,-3.19
2018-12-26T01:42:09.081Z,-3.10
2018-12-26T01:44:38.425Z,-3.18
2018-12-26T01:47:08.047Z,-3.10
2018-12-26T01:49:38.551Z,-3.10
2018-12-26T01:52:08.170Z,-2.98
2018-12-26T01:54:37.689Z,-3.03
2018-12-26T01:57:07.446Z,-3.01
2018-12-26T01:59:36.862Z,-3.03
2018-12-26T02:02:06.599Z,-2.99
2018-12-26T02:04:36.007Z,-3.04
2018-12-26T02:07:05.624Z,-3.07
2018-12-26T02:09:35.731Z,-3.04
2018-12-26T02:12:05.357Z,-3.01
2018-12-26T02:14:34.942Z,-2.99
2018-12-26T02:17:05.624Z,-2.93
2018-12-26T02:19:35.055Z,-2.98
2018-12-26T02:22:04.523Z,-2.97
2018-12-26T02:24:34.464Z,-2.98
2018-12-26T02:27:04.051Z,-2.92
2018-12-26T02:29:33.556Z,-2.94
2018-12-26T02:32:03.472Z,-3.00
2018-12-26T02:34:32.975Z,-3.02
2018-12-26T02:37:02.653Z,-2.92
2018-12-26T02:39:32.348Z,-3.03
2018-12-26T02:42:01.970Z,-2.99
2018-12-26T02:44:31.748Z,-2.96
2018-12-26T02:47:01.728Z,-2.86
2018-12-26T02:49:31.166Z,-2.96
2018-12-26T02:52:00.963Z,-2.88
2018-12-26T02:54:30.664Z,-2.88
2018-12-26T02:57:00.357Z,-2.85
2018-12-26T02:59:29.933Z,-2.87
2018-12-26T03:01:59.696Z,-2.84
2018-12-26T03:04:29.181Z,-2.85
2018-12-26T03:06:58.672Z,-2.86
2018-12-26T03:09:28.435Z,-2.95
2018-12-26T03:11:58.109Z,-2.97
2018-12-26T03:14:27.686Z,-2.90
2018-12-26T03:16:57.674Z,-2.94
2018-12-26T03:19:27.234Z,-3.01
2018-12-26T03:21:56.737Z,-2.98
2018-12-26T03:24:26.457Z,-2.94
2018-12-26T03:26:56.736Z,-2.96
2018-12-26T03:29:25.908Z,-3.00
2018-12-26T03:31:56.036Z,-3.02
2018-12-26T03:34:25.810Z,-3.13
2018-12-26T03:36:55.221Z,-3.10
2018-12-26T03:39:25.179Z,-3.03
2018-12-26T03:41:54.846Z,-3.05
2018-12-26T03:44:24.607Z,-3.03
2018-12-26T03:46:54.295Z,-3.27
2018-12-26T03:49:24.783Z,-3.11
2018-12-26T03:51:54.235Z,-3.13
2018-12-26T03:54:24.117Z,-3.01
2018-12-26T03:56:54.139Z,-3.11
2018-12-26T03:59:23.869Z,-3.07
2018-12-26T04:01:53.623Z,-3.07
2018-12-26T04:04:23.306Z,-3.07
2018-12-26T04:06:53.062Z,-3.11
2018-12-26T04:09:22.692Z,-3.07
2018-12-26T04:11:52.488Z,-3.09
2018-12-26T04:14:24.880Z,-3.13
2018-12-26T04:16:54.456Z,-3.11
2018-12-26T04:19:23.981Z,-3.12
2018-12-26T04:21:54.421Z,-3.07
2018-12-26T04:24:23.826Z,-3.12
2018-12-26T04:26:53.266Z,-3.07
2018-12-26T04:29:22.892Z,-3.10
2018-12-26T04:31:52.557Z,-3.11
2018-12-26T04:34:25.429Z,-3.07
2018-12-26T04:36:55.142Z,-3.01
2018-12-26T04:39:25.258Z,-2.99
2018-12-26T04:41:54.753Z,-3.02
2018-12-26T04:44:24.139Z,-3.07
2018-12-26T04:46:53.499Z,-3.03
2018-12-26T04:49:23.954Z,-3.10
2018-12-26T04:51:52.709Z,-3.08
2018-12-26T04:54:22.175Z,-3.10
2018-12-26T04:56:52.226Z,-3.14
2018-12-26T04:59:21.604Z,-3.10
2018-12-26T05:01:50.935Z,-3.07
2018-12-26T05:04:20.684Z,-3.12
2018-12-26T05:06:50.064Z,-3.13
2018-12-26T05:09:19.668Z,-3.13
2018-12-26T05:11:49.298Z,-3.18
2018-12-26T05:14:18.821Z,-3.20
2018-12-26T05:16:48.465Z,-3.07
2018-12-26T05:19:18.291Z,-3.18
2018-12-26T05:21:48.054Z,-3.14
2018-12-26T05:24:17.900Z,-3.20
2018-12-26T05:26:47.885Z,-3.22
2018-12-26T05:29:17.543Z,-3.11
2018-12-26T05:31:47.272Z,-3.16
2018-12-26T05:34:17.305Z,-3.21
2018-12-26T05:36:46.737Z,-3.22
2018-12-26T05:39:16.339Z,-3.19
2018-12-26T05:41:46.187Z,-3.23
2018-12-26T05:44:15.701Z,-3.28
2018-12-26T05:46:45.540Z,-3.18
2018-12-26T05:49:15.345Z,-3.16
2018-12-26T05:51:44.974Z,-3.18
2018-12-26T05:54:14.550Z,-3.15
2018-12-26T05:56:44.534Z,-3.10
2018-12-26T05:59:13.943Z,-3.07
2018-12-26T06:01:43.752Z,-3.07
2018-12-26T06:04:13.479Z,-3.03
2018-12-26T06:06:43.039Z,-3.00
2018-12-26T06:09:12.668Z,-2.97
2018-12-26T06:11:42.879Z,-3.02
2018-12-26T06:14:12.382Z,-3.03
2018-12-26T06:16:42.160Z,-3.00
2018-12-26T06:19:12.007Z,-2.91
2018-12-26T06:21:41.392Z,-2.94
2018-12-26T06:24:11.280Z,-2.87
2018-12-26T06:26:40.718Z,-2.82
2018-12-26T06:29:10.383Z,-2.87
2018-12-26T06:31:40.853Z,-2.83
2018-12-26T06:34:10.969Z,-2.80
2018-12-26T06:36:40.768Z,-2.80
2018-12-26T06:39:10.851Z,-2.85
2018-12-26T06:41:40.536Z,-2.70
2018-12-26T06:44:10.132Z,-2.71
2018-12-26T06:46:40.277Z,-2.61
2018-12-26T06:49:09.773Z,-2.55
2018-12-26T06:51:39.501Z,-2.56
2018-12-26T06:54:09.685Z,-2.55
2018-12-26T06:56:39.349Z,-2.56
2018-12-26T06:59:08.875Z,-2.56
2018-12-26T07:01:38.731Z,-2.49
2018-12-26T07:04:08.352Z,-2.43
2018-12-26T07:06:38.364Z,-2.39
2018-12-26T07:09:08.274Z,-2.37
2018-12-26T07:11:37.932Z,-2.32
2018-12-26T07:14:07.379Z,-2.20
2018-12-26T07:16:37.385Z,-2.21
2018-12-26T07:19:07.146Z,-2.02
2018-12-26T07:21:37.357Z,-1.99
2018-12-26T07:24:07.014Z,-1.89
2018-12-26T07:26:36.558Z,-1.83
2018-12-26T07:29:06.242Z,-1.80
2018-12-26T07:31:36.207Z,-1.69
2018-12-26T07:34:05.778Z,-1.60
2018-12-26T07:36:35.404Z,-1.41
2018-12-26T07:39:06.734Z,-1.33
2018-12-26T07:41:36.586Z,-1.32
2018-12-26T07:44:07.124Z,-1.16
2018-12-26T07:46:37.220Z,-1.05
2018-12-26T07:49:06.706Z,-0.88
2018-12-26T07:51:36.305Z,-0.86
2018-12-26T07:54:06.463Z,-0.66
2018-12-26T07:56:36.068Z,-0.70
2018-12-26T07:59:06.220Z,-0.75
2018-12-26T08:01:35.906Z,-0.83
2018-12-26T08:04:05.489Z,-0.80
2018-12-26T08:06:35.041Z,-0.69
2018-12-26T08:09:05.877Z,-0.53
2018-12-26T08:11:35.430Z,-0.53
2018-12-26T08:14:05.759Z,-0.31
2018-12-26T08:16:35.654Z,-0.20
2018-12-26T08:19:05.293Z,0.06
2018-12-26T08:21:34.892Z,0.12
2018-12-26T08:24:05.004Z,0.15
2018-12-26T08:26:34.401Z,0.48
2018-12-26T08:29:03.948Z,0.75
2018-12-26T08:31:33.577Z,0.81
2018-12-26T08:34:03.163Z,0.44
2018-12-26T08:36:32.866Z,0.63
2018-12-26T08:39:02.456Z,0.64
2018-12-26T08:41:31.992Z,0.88
2018-12-26T08:44:01.640Z,0.79
2018-12-26T08:46:31.221Z,0.85
2018-12-26T08:49:00.819Z,1.10
2018-12-26T08:51:30.409Z,0.72
2018-12-26T08:54:00.256Z,0.46
2018-12-26T08:56:29.725Z,0.12
2018-12-26T08:58:59.347Z,-0.06
2018-12-26T09:01:29.263Z,-0.04
2018-12-26T09:03:58.970Z,0.47
2018-12-26T09:06:28.462Z,0.98
2018-12-26T09:08:58.358Z,1.39
2018-12-26T09:11:28.318Z,1.67
2018-12-26T09:13:58.096Z,1.42
2018-12-26T09:16:28.446Z,1.17
2018-12-26T09:18:58.125Z,1.12
2018-12-26T09:21:27.745Z,1.13
2018-12-26T09:23:57.497Z,1.36
2018-12-26T09:26:27.054Z,1.34
2018-12-26T09:28:56.784Z,1.10
2018-12-26T09:31:26.845Z,0.90
2018-12-26T09:33:56.737Z,0.88
2018-12-26T09:36:26.328Z,0.44
2018-12-26T09:38:56.063Z,0.38
2018-12-26T09:41:25.745Z,0.15
2018-12-26T09:43:55.228Z,0.07
2018-12-26T09:46:24.935Z,0.32
2018-12-26T09:48:54.417Z,0.39
2018-12-26T09:51:24.135Z,0.23
2018-12-26T09:53:53.894Z,0.35
2018-12-26T09:56:23.273Z,0.71
2018-12-26T09:58:52.949Z,0.70
2018-12-26T10:01:24.452Z,0.85
2018-12-26T10:03:54.591Z,0.70
2018-12-26T10:06:24.408Z,0.68
2018-12-26T10:08:54.424Z,0.79
2018-12-26T10:11:23.884Z,0.93
2018-12-26T10:13:53.288Z,0.73
2018-12-26T10:16:23.403Z,0.69
2018-12-26T10:18:52.861Z,0.76
2018-12-26T10:21:22.345Z,0.69
2018-12-26T10:23:53.054Z,0.46
2018-12-26T10:26:23.257Z,0.30
2018-12-26T10:29:00.786Z,0.27
2018-12-26T10:31:22.998Z,0.72
2018-12-26T10:33:53.237Z,0.55
2018-12-26T10:36:22.797Z,0.53
2018-12-26T10:38:52.645Z,0.51
2018-12-26T10:41:22.519Z,0.51
2018-12-26T10:43:52.709Z,0.27
2018-12-26T10:46:24.654Z,0.26
2018-12-26T10:48:54.400Z,0.38
2018-12-26T10:51:25.053Z,0.48
2018-12-26T10:53:54.887Z,0.63
2018-12-26T10:56:24.551Z,0.63
2018-12-26T10:58:54.606Z,0.60
2018-12-26T11:01:25.824Z,0.57
2018-12-26T11:03:55.688Z,0.60
2018-12-26T11:06:25.141Z,0.78
2018-12-26T11:08:54.755Z,1.04
2018-12-26T11:11:24.416Z,1.43
2018-12-26T11:13:54.172Z,1.89
2018-12-26T11:16:23.845Z,1.67
2018-12-26T11:18:53.503Z,2.48
2018-12-26T11:21:23.119Z,1.71
2018-12-26T11:23:52.805Z,1.46
2018-12-26T11:26:24.483Z,1.45
2018-12-26T11:28:54.351Z,2.47
2018-12-26T11:31:24.049Z,3.71
2018-12-26T11:33:54.122Z,4.42
2018-12-26T11:36:23.589Z,4.99
2018-12-26T11:38:53.338Z,5.36
2018-12-26T11:41:23.175Z,4.41
2018-12-26T11:43:52.775Z,3.68
2018-12-26T11:46:22.154Z,2.81
2018-12-26T11:48:51.949Z,2.48
2018-12-26T11:51:21.488Z,2.26
2018-12-26T11:53:51.215Z,2.04
2018-12-26T11:56:20.765Z,2.09
2018-12-26T11:58:50.504Z,2.50
2018-12-26T12:01:19.900Z,2.45
2018-12-26T12:03:50.027Z,2.00
2018-12-26T12:06:19.417Z,1.77
2018-12-26T12:08:49.529Z,1.61
2018-12-26T12:11:19.343Z,1.48
2018-12-26T12:13:49.590Z,1.30
2018-12-26T12:16:19.092Z,1.37
2018-12-26T12:18:49.308Z,1.30
2018-12-26T12:21:19.087Z,1.34
2018-12-26T12:23:48.588Z,1.21
2018-12-26T12:26:18.535Z,1.31
2018-12-26T12:28:48.743Z,1.54
2018-12-26T12:31:18.271Z,1.61
2018-12-26T12:33:48.428Z,1.30
2018-12-26T12:36:17.869Z,1.37
2018-12-26T12:38:47.730Z,1.40
2018-12-26T12:41:17.984Z,1.32
2018-12-26T12:43:47.599Z,1.24
2018-12-26T12:46:17.389Z,1.24
2018-12-26T12:48:47.567Z,1.25
2018-12-26T12:51:17.178Z,1.31
2018-12-26T12:53:46.648Z,1.14
2018-12-26T12:56:16.704Z,1.14
2018-12-26T12:58:46.548Z,1.08
2018-12-26T13:01:16.132Z,0.89
2018-12-26T13:03:46.657Z,1.02
2018-12-26T13:06:16.148Z,0.99
2018-12-26T13:08:45.647Z,1.01
2018-12-26T13:11:15.748Z,1.00
2018-12-26T13:13:45.358Z,0.87
2018-12-26T13:16:16.096Z,0.79
2018-12-26T13:18:45.888Z,0.84
2018-12-26T13:21:15.593Z,0.85
2018-12-26T13:23:45.370Z,0.85
2018-12-26T13:26:14.985Z,0.76
2018-12-26T13:28:45.817Z,0.80
2018-12-26T13:31:15.839Z,0.75
2018-12-26T13:33:45.299Z,0.73
2018-12-26T13:36:14.661Z,1.42
2018-12-26T13:38:44.589Z,1.86
2018-12-26T13:41:14.271Z,1.94
2018-12-26T13:43:44.007Z,2.06
2018-12-26T13:46:14.184Z,1.57
2018-12-26T13:48:43.868Z,1.29
2018-12-26T13:51:14.172Z,1.23
2018-12-26T13:53:44.079Z,0.99
2018-12-26T13:56:13.981Z,0.96
2018-12-26T13:58:44.651Z,0.83
2018-12-26T14:01:14.584Z,0.81
2018-12-26T14:03:44.115Z,0.73
2018-12-26T14:06:13.783Z,0.65
2018-12-26T14:08:43.808Z,0.62
2018-12-26T14:11:13.344Z,0.52
2018-12-26T14:13:42.917Z,0.49
2018-12-26T14:16:12.677Z,0.46
2018-12-26T14:18:42.164Z,0.58
2018-12-26T14:21:11.943Z,0.49
2018-12-26T14:23:41.728Z,0.49
2018-12-26T14:26:11.600Z,0.45
2018-12-26T14:28:42.668Z,0.46
2018-12-26T14:31:12.351Z,0.44
2018-12-26T14:33:41.836Z,0.41
2018-12-26T14:36:11.610Z,0.42
2018-12-26T14:38:41.269Z,0.40
2018-12-26T14:41:11.027Z,0.55
2018-12-26T14:43:40.552Z,0.58
2018-12-26T14:46:10.292Z,0.35
2018-12-26T14:48:40.012Z,0.32
2018-12-26T14:51:09.519Z,0.26
2018-12-26T14:53:39.077Z,0.27
2018-12-26T14:56:09.357Z,0.22
2018-12-26T14:58:39.196Z,0.31
2018-12-26T15:01:08.631Z,0.29
2018-12-26T15:03:38.398Z,0.25
2018-12-26T15:06:08.697Z,0.22
2018-12-26T15:08:38.162Z,0.20
2018-12-26T15:11:07.600Z,0.29
2018-12-26T15:13:37.177Z,0.25
2018-12-26T15:16:06.619Z,0.30
2018-12-26T15:18:36.103Z,0.35
2018-12-26T15:21:06.167Z,0.46
2018-12-26T15:23:35.984Z,0.46
2018-12-26T15:26:05.699Z,0.39
2018-12-26T15:28:35.320Z,0.35
2018-12-26T15:31:05.031Z,0.37
2018-12-26T15:33:34.597Z,0.38
2018-12-26T15:36:04.479Z,0.31
2018-12-26T15:38:34.120Z,0.37
2018-12-26T15:41:03.804Z,0.42
2018-12-26T15:43:33.560Z,0.40
2018-12-26T15:46:03.648Z,0.39
2018-12-26T15:48:33.417Z,0.30
2018-12-26T15:51:03.221Z,0.31
2018-12-26T15:53:32.875Z,0.32
2018-12-26T15:56:02.384Z,0.33
2018-12-26T15:58:32.037Z,0.33
2018-12-26T16:01:01.728Z,0.35
2018-12-26T16:03:31.023Z,0.38
2018-12-26T16:06:00.701Z,0.44
2018-12-26T16:25:51.551Z,0.46
2018-12-26T16:28:20.935Z,0.41
2018-12-26T16:30:50.491Z,0.46
2018-12-26T16:50:42.961Z,0.56
2018-12-26T16:53:12.631Z,0.58
2018-12-26T16:55:42.246Z,0.58
2018-12-26T16:58:12.287Z,0.61
2018-12-26T17:00:41.971Z,0.69
2018-12-26T17:03:11.682Z,0.69
2018-12-26T17:05:41.594Z,0.68
2018-12-26T17:08:11.312Z,0.72
2018-12-26T17:10:40.864Z,0.65
2018-12-26T17:13:10.446Z,0.71
2018-12-26T17:15:39.929Z,0.74
2018-12-26T17:35:32.035Z,0.66
2018-12-26T17:56:32.541Z,0.63
2018-12-26T17:59:09.448Z,0.54
2018-12-26T18:01:48.363Z,0.50
2018-12-26T18:04:18.207Z,0.64
2018-12-26T18:06:47.542Z,0.64
2018-12-26T18:09:17.266Z,0.63
2018-12-26T18:29:09.970Z,0.61
2018-12-26T18:31:39.670Z,0.60
2018-12-26T18:34:09.199Z,0.64
2018-12-26T18:54:01.328Z,0.55
2018-12-26T18:56:31.167Z,0.47
2018-12-26T18:59:00.811Z,0.43
2018-12-26T19:01:30.995Z,0.46
2018-12-26T19:04:00.155Z,0.41
2018-12-26T19:06:29.885Z,0.46
2018-12-26T19:08:59.875Z,0.41
2018-12-26T19:11:29.700Z,0.37
2018-12-26T19:13:59.176Z,0.46
2018-12-26T19:16:29.037Z,0.37
2018-12-26T19:36:19.930Z,0.46
2018-12-26T19:38:49.980Z,0.48
2018-12-26T19:41:19.356Z,0.43
2018-12-26T19:43:49.067Z,0.43
2018-12-26T19:46:18.709Z,0.45
2018-12-26T19:48:48.116Z,0.47
2018-12-26T19:51:17.693Z,0.48
2018-12-26T19:53:47.368Z,0.52
2018-12-26T19:56:17.021Z,0.55
2018-12-26T19:58:46.517Z,0.52
2018-12-26T20:01:16.034Z,0.51
2018-12-26T20:21:07.349Z,0.40
2018-12-26T20:23:37.138Z,0.37
2018-12-26T20:26:06.636Z,0.41
2018-12-26T20:28:36.215Z,0.46
2018-12-26T20:31:06.358Z,0.43
2018-12-26T20:33:35.947Z,0.51
2018-12-26T20:36:05.627Z,0.51
2018-12-26T20:38:35.467Z,0.47
2018-12-26T20:41:05.177Z,0.43
2018-12-26T20:43:34.765Z,0.47
2018-12-26T20:46:04.752Z,0.50
2018-12-26T20:48:34.487Z,0.43
2018-12-26T20:51:04.217Z,0.41
2018-12-26T20:53:33.795Z,0.48
2018-12-26T20:56:03.415Z,0.49
2018-12-26T20:58:33.112Z,0.45
2018-12-26T21:01:02.668Z,0.47
2018-12-26T21:03:32.232Z,0.49
2018-12-26T21:06:02.001Z,0.46
2018-12-26T21:08:31.897Z,0.49
2018-12-26T21:11:01.565Z,0.44
2018-12-26T21:13:31.461Z,0.43
2018-12-26T21:16:01.867Z,0.43
2018-12-26T21:18:31.515Z,0.47
2018-12-26T21:21:01.022Z,0.41
2018-12-26T21:23:30.706Z,0.46
2018-12-26T21:26:00.296Z,0.52
2018-12-26T21:45:52.553Z,0.44
2018-12-26T21:48:22.190Z,0.57
2018-12-26T21:50:51.831Z,0.48
2018-12-26T22:10:43.704Z,0.37
2018-12-26T22:13:13.890Z,0.38
2018-12-26T22:33:05.334Z,0.54
2018-12-26T22:52:57.260Z,0.58
2018-12-26T22:55:26.833Z,0.56
2018-12-26T22:57:56.298Z,0.58
2018-12-26T23:00:34.427Z,0.58
2018-12-26T23:03:04.042Z,0.64
2018-12-26T23:05:33.656Z,0.62
2018-12-26T23:08:03.364Z,0.62
2018-12-26T23:10:33.145Z,0.59
2018-12-26T23:13:02.792Z,0.61
2018-12-26T23:32:56.033Z,0.58
2018-12-26T23:35:25.631Z,0.58
2018-12-26T23:55:16.599Z,0.68
2018-12-26T23:57:46.265Z,0.67
